This is the latest recevied weather packets stored in our database for station/object AH6GR. If no packets are shown the sender has not sent any weather packets the latest 10 day(s).
| Time | Temp. | Humidity | Pressure | Rain* | Wind** | Luminosity | Snow |
|---|---|---|---|---|---|---|---|
| 1777851918 | 23.33° C | 80% | 1016 hPa | 0 mm | - | - | - |
| 1777851629 | 23.33° C | 80% | 1016.9 hPa | 0 mm | - | - | - |
| 1777851063 | 22.78° C | 81% | 1016 hPa | 0 mm | - | - | - |
| 1777851029 | 23.33° C | 81% | 1016.9 hPa | 0 mm | - | - | - |
| 1777850429 | 23.33° C | 80% | 1017 hPa | 0 mm | - | - | - |
| 1777850129 | 23.33° C | 82% | 1016.1 hPa | 0 mm | - | - | - |
| 1777849829 | 23.33° C | 81% | 1017 hPa | 0 mm | - | - | - |
| 1777849229 | 23.89° C | 77% | 1017.3 hPa | 0 mm | - | - | - |
| 1777849201 | 23.33° C | 77% | 1016.3 hPa | 0 mm | - | - | - |
| 1777848629 | 23.89° C | 78% | 1017.1 hPa | 0 mm | - | - | - |
| 1777848348 | 23.33° C | 79% | 1016.2 hPa | 0 mm | - | - | - |
| 1777848029 | 23.33° C | 79% | 1017.1 hPa | 0 mm | - | - | - |
| 1777847428 | 24.44° C | 78% | 1017.4 hPa | 0 mm | - | - | - |
| 1777847417 | 23.89° C | 78% | 1016.4 hPa | 0 mm | - | - | - |
| 1777846829 | 23.89° C | 75% | 1017.4 hPa | 0 mm | - | - | - |
| 1777846563 | 23.89° C | 74% | 1016.5 hPa | 0 mm | - | - | - |
| 1777846228 | 23.89° C | 76% | 1017.4 hPa | 0 mm | - | - | - |
| 1777845636 | 23.89° C | 78% | 1016.7 hPa | 0 mm | - | - | - |
| 1777845629 | 23.89° C | 78% | 1017.6 hPa | 0 mm | - | - | - |
| 1777845029 | 23.89° C | 78% | 1017.9 hPa | 0 mm | - | - | - |
| 1777844723 | 23.33° C | 82% | 1016.9 hPa | 0 mm | - | - | - |
| 1777844428 | 23.89° C | 82% | 1017.9 hPa | 0 mm | - | - | - |
| 1777843844 | 24.44° C | 78% | 1017 hPa | 0 mm | - | - | - |
| 1777843828 | 24.44° C | 78% | 1018 hPa | 0 mm | - | - | - |
| 1777843228 | 23.89° C | 81% | 1018.1 hPa | 0 mm | - | - | - |
* Rain latest hour (hover to see other rain measurements)
** Current wind speed in m/s (hover to see current wind gust speed)